ADDS METAR Data INFO
IDs: Format: Raw Decoded Include TAF

Data at: 0351 UTC 20 Feb 2018

KDLZ 200335Z AUTO 20011KT 10SM CLR 17/12 A3008 RMK AO2
KDLZ 200315Z AUTO 20013G21KT 10SM CLR 17/12 A3008 RMK AO2
KDLZ 200255Z AUTO 20014G18KT 10SM CLR 17/12 A3008 RMK AO2
KDLZ 200235Z AUTO 20010G18KT 10SM CLR 18/12 A3007 RMK AO2
KDLZ 200215Z AUTO 20014G20KT 10SM CLR 18/13 A3008 RMK AO2
KDLZ 200155Z AUTO 19012G19KT 10SM CLR 18/13 A3007 RMK AO2
KDLZ 200135Z AUTO 19013G16KT 10SM CLR 18/13 A3007 RMK AO2
KDLZ 200115Z AUTO 19012G16KT 10SM CLR 17/13 A3007 RMK AO2
KDLZ 200055Z AUTO 19009KT 10SM CLR 17/13 A3007 RMK AO2
KDLZ 200035Z AUTO 19010KT 10SM CLR 18/13 A3007 RMK AO2
KDLZ 200015Z AUTO 19008KT 10SM CLR 18/13 A3006 RMK AO2
KDLZ 192355Z AUTO 19012G17KT 10SM CLR 18/14 A3006 RMK AO2
KDLZ 192335Z AUTO 20011G16KT 10SM CLR 18/14 A3006 RMK AO2
KDLZ 192315Z AUTO 19012KT 10SM CLR 19/14 A3005 RMK AO2
KDLZ 192255Z AUTO 19009KT 10SM SCT049 18/15 A3004 RMK AO2
KDLZ 192235Z AUTO 18007KT 10SM SCT040 SCT049 BKN110 18/15 A3003 RMK AO2
KDLZ 192215Z AUTO 17007KT 10SM SCT110 18/15 A3003 RMK AO2
KDLZ 192155Z AUTO 17008KT 10SM CLR 19/15 A3003 RMK AO2
KDLZ 192135Z AUTO 19008KT 10SM CLR 19/15 A3003 RMK AO2
KDLZ 192115Z AUTO 19008KT 10SM SCT110 18/15 A3003 RMK AO2
KDLZ 192055Z AUTO 19007KT 10SM SCT048 SCT050 SCT110 18/15 A3003 RMK AO2
KDLZ 192035Z AUTO 19007KT 10SM SCT041 BKN050 BKN120 17/15 A3004 RMK AO2
KDLZ 192015Z AUTO 18009KT 10SM SCT044 BKN050 17/15 A3003 RMK AO2
KDLZ 191955Z AUTO 18007KT 10SM SCT044 SCT049 BKN095 16/15 A3003 RMK AO2 P0001
KDLZ 191935Z AUTO 17008KT 10SM SCT043 SCT070 OVC095 15/14 A3003 RMK AO2 P0001
KDLZ 191915Z AUTO 18005KT 10SM RA SCT037 BKN060 OVC085 15/14 A3005 RMK AO2 P0001
KDLZ 191855Z AUTO 17006KT 10SM RA SCT029 BKN070 OVC085 15/13 A3005 RMK AO2
KDLZ 191835Z AUTO 17005KT 10SM BKN024 BKN032 OVC049 13/13 A3007 RMK AO2
KDLZ 191815Z AUTO 19005KT 10SM BKN024 OVC120 12/12 A3007 RMK AO2
KDLZ 191755Z AUTO 17004KT 7SM SCT016 BKN027 OVC120 12/12 A3006 RMK AO2
KDLZ 191735Z AUTO 16007KT 7SM OVC021 12/11 A3006 RMK AO2
KDLZ 191715Z AUTO 16007KT 10SM OVC019 11/11 A3007 RMK AO2
KDLZ 191655Z AUTO 17007KT 7SM OVC015 11/11 A3007 RMK AO2
KDLZ 191635Z AUTO 17006KT 5SM BR SCT003 BKN008 OVC021 10/10 A3007 RMK AO2
KDLZ 191615Z AUTO 16007KT 5SM BR BKN003 OVC008 08/08 A3008 RMK AO2
KDLZ 191555Z AUTO 16007KT 4SM RA BKN002 OVC008 08/08 A3007 RMK AO2 P0003
KDLZ 191535Z AUTO 15006KT 3SM DZ BKN002 OVC008 08/08 A3007 RMK AO2 P0003
KDLZ 191515Z AUTO 14005KT 2SM RA BKN002 OVC010 07/07 A3007 RMK AO2 P0003
KDLZ 191455Z AUTO 14005KT 3SM RA OVC010 07/07 A3007 RMK AO2 P0024
KDLZ 191435Z AUTO 15006KT 2SM RA OVC014 07/07 A3008 RMK AO2 VIS 1 1/2V3 P0016
KDLZ 191415Z AUTO 18003KT 1 3/4SM +VCTSSN BKN015 OVC023 07/07 A3009 RMK AO2 VIS 3/4V3 P0008 LTG DSNT E
KDLZ 191355Z AUTO 19005KT 1 1/2SM -TSRA OVC007 07/07 A3009 RMK AO2 P0016 LTG DSNT ALQS
KDLZ 191335Z AUTO 21007KT 10SM -VCTSDZ OVC009 07/07 A3009 RMK AO2 LTG DSNT W AND NW
KDLZ 191315Z AUTO 18012G15KT 10SM VCTS OVC009 07/07 A3007 RMK AO2 LTG DSNT W THRU NE
KDLZ 191255Z AUTO 18011KT 10SM VCTS BKN011 OVC017 07/06 A3005 RMK AO2 LTG DSNT NE AND NW
KDLZ 191235Z AUTO 18012KT 7SM -RA BKN013 OVC018 06/05 A3005 RMK AO2 LTG DSNT W THRU NE
KDLZ 191215Z AUTO 18010G15KT 10SM VCTS OVC016 06/05 A3005 RMK AO2 LTG DSNT W
KDLZ 191155Z AUTO 18010KT 10SM SCT014 BKN018 OVC090 06/04 A3005 RMK AO2 LTG DSNT N AND W
KDLZ 191135Z AUTO 16011KT 10SM -RA BKN016 BKN024 OVC090 05/03 A3004 RMK AO2
KDLZ 191115Z AUTO 16011KT 10SM OVC014 06/03 A3007 RMK AO2
KDLZ 191055Z AUTO 18006KT 10SM OVC014 05/02 A3007 RMK AO2
KDLZ 191035Z AUTO 18006KT 10SM OVC016 05/01 A3007 RMK AO2
KDLZ 191015Z AUTO 18009KT 10SM OVC016 05/01 A3007 RMK AO2
KDLZ 190955Z AUTO 18012G15KT 10SM BKN020 BKN070 BKN100 04/00 A3007 RMK AO2
KDLZ 190935Z AUTO 17010KT 10SM SCT120 03/00 A3006 RMK AO2
KDLZ 190915Z AUTO 17008KT 10SM SCT110 03/00 A3006 RMK AO2
KDLZ 190855Z AUTO 17009KT 10SM CLR 02/00 A3006 RMK AO2
KDLZ 190835Z AUTO 17011G16KT 10SM CLR 03/00 A3007 RMK AO2
KDLZ 190815Z AUTO 16010G15KT 10SM CLR 02/M01 A3007 RMK AO2
KDLZ 190755Z AUTO 16008KT 10SM CLR 02/M01 A3007 RMK AO2
KDLZ 190735Z AUTO 15007KT 10SM CLR 02/M01 A3007 RMK AO2
KDLZ 190715Z AUTO 16008KT 10SM SCT110 02/M01 A3009 RMK AO2
KDLZ 190655Z AUTO 16010KT 10SM CLR 02/M01 A3009 RMK AO2
KDLZ 190635Z AUTO 15008KT 10SM CLR 02/M01 A3010 RMK AO2
KDLZ 190615Z AUTO 15008KT 10SM CLR 02/M01 A3010 RMK AO2
KDLZ 190555Z AUTO 16007KT 10SM CLR 02/M01 A3011 RMK AO2
KDLZ 190535Z AUTO 15008KT 10SM CLR 02/M01 A3011 RMK AO2
KDLZ 190515Z AUTO 16006KT 10SM CLR 02/M01 A3012 RMK AO2
KDLZ 190455Z AUTO 14008KT 10SM CLR 02/M01 A3011 RMK AO2
KDLZ 190435Z AUTO 15008KT 10SM CLR 02/M01 A3013 RMK AO2
KDLZ 190415Z AUTO 14009G15KT 10SM CLR 02/M01 A3013 RMK AO2
KDLZ 190355Z AUTO 14009KT 10SM CLR 02/M01 A3015 RMK AO2
KDLZ 190335Z AUTO 14009KT 10SM CLR 02/M01 A3016 RMK AO2
KDLZ 190315Z AUTO 13008G14KT 10SM CLR 02/M01 A3017 RMK AO2
KDLZ 190255Z AUTO 13007KT 10SM CLR 02/M01 A3017 RMK AO2
KDLZ 190235Z AUTO 13007KT 10SM CLR 02/M01 A3019 RMK AO2
KDLZ 190215Z AUTO 14008KT 10SM CLR 02/M01 A3021 RMK AO2
KDLZ 190155Z AUTO 14007KT 10SM CLR 02/M01 A3021 RMK AO2
KDLZ 190135Z AUTO 13008KT 10SM CLR 02/M01 A3022 RMK AO2
KDLZ 190115Z AUTO 14007KT 10SM CLR 02/M01 A3023 RMK AO2
KDLZ 190055Z AUTO 13008KT 10SM CLR 02/M01 A3023 RMK AO2
KDLZ 190035Z AUTO 12006KT 10SM CLR 02/00 A3023 RMK AO2
KDLZ 190015Z AUTO 11007KT 10SM CLR 03/00 A3023 RMK AO2
KDLZ 182355Z AUTO 12006KT 10SM CLR 03/00 A3024 RMK AO2
KDLZ 182335Z AUTO 12007KT 10SM CLR 03/00 A3024 RMK AO2
KDLZ 182315Z AUTO 12008KT 10SM CLR 03/00 A3024 RMK AO2
KDLZ 182255Z AUTO 12007KT 10SM CLR 04/00 A3025 RMK AO2
KDLZ 182235Z AUTO 12009KT 10SM CLR 05/M01 A3027 RMK AO2
KDLZ 182215Z AUTO 14007KT 10SM CLR 05/M01 A3027 RMK AO2
KDLZ 182155Z AUTO 15010KT 10SM CLR 05/M01 A3027 RMK AO2
KDLZ 182135Z AUTO 14008KT 10SM CLR 06/M01 A3027 RMK AO2
KDLZ 182115Z AUTO 17008KT 10SM CLR 06/M01 A3027 RMK AO2
KDLZ 182055Z AUTO 15010KT 10SM CLR 05/M01 A3028 RMK AO2
KDLZ 182035Z AUTO 12008G15KT 10SM CLR 05/00 A3029 RMK AO2
KDLZ 182015Z AUTO 16009KT 10SM CLR 05/M01 A3029 RMK AO2
KDLZ 181955Z AUTO 16009KT 10SM CLR 05/00 A3030 RMK AO2
KDLZ 181935Z AUTO 17007KT 144V204 10SM CLR 04/M01 A3031 RMK AO2
KDLZ 181915Z AUTO 16008KT 10SM CLR 04/00 A3032 RMK AO2
KDLZ 181855Z AUTO 16008KT 10SM SCT028 04/00 A3033 RMK AO2
KDLZ 181835Z AUTO 18009G14KT 10SM SCT028 04/M01 A3035 RMK AO2
KDLZ 181815Z AUTO 20010KT 10SM SCT030 04/00 A3035 RMK AO2
KDLZ 181755Z AUTO 19009KT 10SM SCT028 04/M01 A3035 RMK AO2
KDLZ 181735Z AUTO 18010G17KT 154V214 10SM BKN026 03/00 A3035 RMK AO2
KDLZ 181715Z AUTO 19008KT 10SM SCT024 03/M01 A3036 RMK AO2
KDLZ 181655Z AUTO 20006KT 10SM SCT020 03/M01 A3036 RMK AO2
KDLZ 181635Z AUTO 15003KT 10SM BKN020 02/M01 A3035 RMK AO2
KDLZ 181615Z AUTO 16007KT 10SM BKN020 02/M02 A3035 RMK AO2
KDLZ 181555Z AUTO 00000KT 10SM SCT018 01/M02 A3036 RMK AO2